sensor_id;sensor_type;location;lat;lon;timestamp;temperature;humidity
76607;DHT22;65498;50.916;4.698;2022-11-25T00:01:17;22.50;47.90
76607;DHT22;65498;50.916;4.698;2022-11-25T00:03:46;22.50;47.80
76607;DHT22;65498;50.916;4.698;2022-11-25T00:06:27;22.50;47.90
76607;DHT22;65498;50.916;4.698;2022-11-25T00:08:53;22.50;47.80
76607;DHT22;65498;50.916;4.698;2022-11-25T00:11:21;22.40;47.90
76607;DHT22;65498;50.916;4.698;2022-11-25T00:13:50;22.40;47.90
76607;DHT22;65498;50.916;4.698;2022-11-25T00:16:20;22.50;47.90
76607;DHT22;65498;50.916;4.698;2022-11-25T00:18:50;22.50;47.90
76607;DHT22;65498;50.916;4.698;2022-11-25T00:21:20;22.50;47.80
76607;DHT22;65498;50.916;4.698;2022-11-25T00:23:57;22.40;47.90
76607;DHT22;65498;50.916;4.698;2022-11-25T00:26:22;22.50;47.80
76607;DHT22;65498;50.916;4.698;2022-11-25T00:28:50;22.50;47.90
76607;DHT22;65498;50.916;4.698;2022-11-25T00:31:23;22.40;47.90
76607;DHT22;65498;50.916;4.698;2022-11-25T00:33:52;22.40;47.90
76607;DHT22;65498;50.916;4.698;2022-11-25T00:36:31;22.40;48.00
76607;DHT22;65498;50.916;4.698;2022-11-25T00:39:01;22.40;47.80
76607;DHT22;65498;50.916;4.698;2022-11-25T00:41:29;22.40;47.90
76607;DHT22;65498;50.916;4.698;2022-11-25T00:44:17;22.40;47.90
76607;DHT22;65498;50.916;4.698;2022-11-25T00:47:15;22.40;48.00
76607;DHT22;65498;50.916;4.698;2022-11-25T00:49:40;22.40;48.00
76607;DHT22;65498;50.916;4.698;2022-11-25T00:52:09;22.40;47.90
76607;DHT22;65498;50.916;4.698;2022-11-25T00:54:38;22.40;48.00
76607;DHT22;65498;50.916;4.698;2022-11-25T00:57:05;22.40;47.90
76607;DHT22;65498;50.916;4.698;2022-11-25T00:59:33;22.40;48.40
76607;DHT22;65498;50.916;4.698;2022-11-25T01:02:00;22.50;47.60
76607;DHT22;65498;50.916;4.698;2022-11-25T01:04:28;22.40;47.60
76607;DHT22;65498;50.916;4.698;2022-11-25T01:06:56;22.40;47.50
76607;DHT22;65498;50.916;4.698;2022-11-25T01:09:26;22.40;47.50
76607;DHT22;65498;50.916;4.698;2022-11-25T01:11:53;22.40;47.50
76607;DHT22;65498;50.916;4.698;2022-11-25T01:14:22;22.40;47.60
76607;DHT22;65498;50.916;4.698;2022-11-25T01:16:50;22.50;47.50
76607;DHT22;65498;50.916;4.698;2022-11-25T01:19:19;22.40;47.60
76607;DHT22;65498;50.916;4.698;2022-11-25T01:21:46;22.40;47.90
76607;DHT22;65498;50.916;4.698;2022-11-25T01:24:14;22.20;48.20
76607;DHT22;65498;50.916;4.698;2022-11-25T01:26:43;22.00;48.90
76607;DHT22;65498;50.916;4.698;2022-11-25T01:29:14;21.80;49.40
76607;DHT22;65498;50.916;4.698;2022-11-25T01:31:42;21.70;49.40
76607;DHT22;65498;50.916;4.698;2022-11-25T01:34:17;21.60;49.80
76607;DHT22;65498;50.916;4.698;2022-11-25T01:36:43;21.50;50.10
76607;DHT22;65498;50.916;4.698;2022-11-25T01:39:19;21.60;49.90
76607;DHT22;65498;50.916;4.698;2022-11-25T01:41:47;21.50;50.20
76607;DHT22;65498;50.916;4.698;2022-11-25T01:44:17;21.70;50.10
76607;DHT22;65498;50.916;4.698;2022-11-25T01:46:51;21.60;50.40
76607;DHT22;65498;50.916;4.698;2022-11-25T01:51:55;21.80;50.10
76607;DHT22;65498;50.916;4.698;2022-11-25T01:54:25;21.80;49.60
76607;DHT22;65498;50.916;4.698;2022-11-25T01:57:00;21.80;49.70
76607;DHT22;65498;50.916;4.698;2022-11-25T01:59:29;21.80;49.80
76607;DHT22;65498;50.916;4.698;2022-11-25T02:01:59;21.90;49.70
76607;DHT22;65498;50.916;4.698;2022-11-25T02:04:30;21.90;49.60
76607;DHT22;65498;50.916;4.698;2022-11-25T02:07:04;21.80;49.60
76607;DHT22;65498;50.916;4.698;2022-11-25T02:09:33;21.90;49.70
76607;DHT22;65498;50.916;4.698;2022-11-25T02:12:01;21.80;49.70
76607;DHT22;65498;50.916;4.698;2022-11-25T02:14:29;21.80;49.80
76607;DHT22;65498;50.916;4.698;2022-11-25T02:16:59;21.80;49.90
76607;DHT22;65498;50.916;4.698;2022-11-25T02:22:09;21.70;49.90
76607;DHT22;65498;50.916;4.698;2022-11-25T02:24:45;21.70;50.10
76607;DHT22;65498;50.916;4.698;2022-11-25T02:27:08;21.60;50.00
76607;DHT22;65498;50.916;4.698;2022-11-25T02:29:37;21.70;50.00
76607;DHT22;65498;50.916;4.698;2022-11-25T02:32:05;21.70;49.90
76607;DHT22;65498;50.916;4.698;2022-11-25T02:34:33;21.80;49.80
76607;DHT22;65498;50.916;4.698;2022-11-25T02:37:00;21.80;49.90
76607;DHT22;65498;50.916;4.698;2022-11-25T02:39:28;21.70;49.90
76607;DHT22;65498;50.916;4.698;2022-11-25T02:41:57;21.70;49.90
76607;DHT22;65498;50.916;4.698;2022-11-25T02:44:26;21.70;50.00
76607;DHT22;65498;50.916;4.698;2022-11-25T02:46:54;21.70;49.90
76607;DHT22;65498;50.916;4.698;2022-11-25T02:49:21;21.70;50.20
76607;DHT22;65498;50.916;4.698;2022-11-25T02:51:49;21.70;50.10
76607;DHT22;65498;50.916;4.698;2022-11-25T02:54:17;21.70;50.20
76607;DHT22;65498;50.916;4.698;2022-11-25T02:56:45;21.70;50.10
76607;DHT22;65498;50.916;4.698;2022-11-25T02:59:13;21.60;50.20
76607;DHT22;65498;50.916;4.698;2022-11-25T03:01:40;21.70;50.20
76607;DHT22;65498;50.916;4.698;2022-11-25T03:04:08;21.60;50.00
76607;DHT22;65498;50.916;4.698;2022-11-25T03:06:36;21.60;50.40
76607;DHT22;65498;50.916;4.698;2022-11-25T03:09:04;21.60;50.40
76607;DHT22;65498;50.916;4.698;2022-11-25T03:11:31;21.60;50.40
76607;DHT22;65498;50.916;4.698;2022-11-25T03:14:17;21.60;50.30
76607;DHT22;65498;50.916;4.698;2022-11-25T03:16:44;21.60;50.60
76607;DHT22;65498;50.916;4.698;2022-11-25T03:19:12;21.50;50.60
76607;DHT22;65498;50.916;4.698;2022-11-25T03:21:40;21.50;50.70
76607;DHT22;65498;50.916;4.698;2022-11-25T03:24:07;21.50;50.60
76607;DHT22;65498;50.916;4.698;2022-11-25T03:26:35;21.50;50.60
76607;DHT22;65498;50.916;4.698;2022-11-25T03:29:03;21.50;50.50
76607;DHT22;65498;50.916;4.698;2022-11-25T03:31:30;21.50;50.80
76607;DHT22;65498;50.916;4.698;2022-11-25T03:33:58;21.50;51.30
76607;DHT22;65498;50.916;4.698;2022-11-25T03:36:26;21.50;50.70
76607;DHT22;65498;50.916;4.698;2022-11-25T03:38:53;21.50;50.70
76607;DHT22;65498;50.916;4.698;2022-11-25T03:41:21;21.60;50.60
76607;DHT22;65498;50.916;4.698;2022-11-25T03:43:49;21.50;50.60
76607;DHT22;65498;50.916;4.698;2022-11-25T03:46:16;21.50;50.80
76607;DHT22;65498;50.916;4.698;2022-11-25T03:48:44;21.50;50.70
76607;DHT22;65498;50.916;4.698;2022-11-25T03:51:11;21.50;50.80
76607;DHT22;65498;50.916;4.698;2022-11-25T03:53:39;21.50;50.80
76607;DHT22;65498;50.916;4.698;2022-11-25T03:56:07;21.50;50.80
76607;DHT22;65498;50.916;4.698;2022-11-25T03:58:35;21.40;51.00
76607;DHT22;65498;50.916;4.698;2022-11-25T04:01:03;21.50;50.80
76607;DHT22;65498;50.916;4.698;2022-11-25T04:03:31;21.40;51.00
76607;DHT22;65498;50.916;4.698;2022-11-25T04:05:59;21.40;50.90
76607;DHT22;65498;50.916;4.698;2022-11-25T04:08:26;21.40;51.10
76607;DHT22;65498;50.916;4.698;2022-11-25T04:10:54;21.40;51.10
76607;DHT22;65498;50.916;4.698;2022-11-25T04:13:22;21.40;51.20
76607;DHT22;65498;50.916;4.698;2022-11-25T04:15:50;21.40;50.90
76607;DHT22;65498;50.916;4.698;2022-11-25T04:18:19;21.40;51.10
76607;DHT22;65498;50.916;4.698;2022-11-25T04:20:47;21.40;51.10
76607;DHT22;65498;50.916;4.698;2022-11-25T04:23:14;21.30;51.40
76607;DHT22;65498;50.916;4.698;2022-11-25T04:25:42;21.40;51.20
76607;DHT22;65498;50.916;4.698;2022-11-25T04:28:10;21.40;51.20
76607;DHT22;65498;50.916;4.698;2022-11-25T04:30:37;21.40;51.30
76607;DHT22;65498;50.916;4.698;2022-11-25T04:33:05;21.30;51.50
76607;DHT22;65498;50.916;4.698;2022-11-25T04:35:33;21.40;51.30
76607;DHT22;65498;50.916;4.698;2022-11-25T04:38:00;21.40;51.30
76607;DHT22;65498;50.916;4.698;2022-11-25T04:40:28;21.40;51.30
76607;DHT22;65498;50.916;4.698;2022-11-25T04:42:55;21.30;51.40
76607;DHT22;65498;50.916;4.698;2022-11-25T04:45:23;21.30;51.30
76607;DHT22;65498;50.916;4.698;2022-11-25T04:47:51;21.30;51.30
76607;DHT22;65498;50.916;4.698;2022-11-25T04:50:20;21.30;51.30
76607;DHT22;65498;50.916;4.698;2022-11-25T04:52:48;21.30;51.30
76607;DHT22;65498;50.916;4.698;2022-11-25T04:55:16;21.30;51.30
76607;DHT22;65498;50.916;4.698;2022-11-25T04:57:44;21.30;51.30
76607;DHT22;65498;50.916;4.698;2022-11-25T05:00:12;21.30;51.20
76607;DHT22;65498;50.916;4.698;2022-11-25T05:02:40;21.40;51.30
76607;DHT22;65498;50.916;4.698;2022-11-25T05:05:08;21.30;51.30
76607;DHT22;65498;50.916;4.698;2022-11-25T05:07:35;21.20;51.50
76607;DHT22;65498;50.916;4.698;2022-11-25T05:10:04;21.20;51.40
76607;DHT22;65498;50.916;4.698;2022-11-25T05:12:33;21.20;51.30
76607;DHT22;65498;50.916;4.698;2022-11-25T05:15:01;21.20;51.60
76607;DHT22;65498;50.916;4.698;2022-11-25T05:17:31;21.20;51.40
76607;DHT22;65498;50.916;4.698;2022-11-25T05:19:58;21.20;51.60
76607;DHT22;65498;50.916;4.698;2022-11-25T05:22:28;21.20;51.40
76607;DHT22;65498;50.916;4.698;2022-11-25T05:24:57;21.30;51.30
76607;DHT22;65498;50.916;4.698;2022-11-25T05:27:25;21.20;51.40
76607;DHT22;65498;50.916;4.698;2022-11-25T05:29:53;21.20;51.40
76607;DHT22;65498;50.916;4.698;2022-11-25T05:32:20;21.20;51.50
76607;DHT22;65498;50.916;4.698;2022-11-25T05:34:48;21.20;51.50
76607;DHT22;65498;50.916;4.698;2022-11-25T05:37:15;21.20;51.60
76607;DHT22;65498;50.916;4.698;2022-11-25T05:39:43;21.10;51.60
76607;DHT22;65498;50.916;4.698;2022-11-25T05:42:11;21.20;51.40
76607;DHT22;65498;50.916;4.698;2022-11-25T05:44:38;21.10;51.60
76607;DHT22;65498;50.916;4.698;2022-11-25T05:47:06;21.10;51.70
76607;DHT22;65498;50.916;4.698;2022-11-25T05:49:34;21.20;51.50
76607;DHT22;65498;50.916;4.698;2022-11-25T05:52:01;21.10;51.60
76607;DHT22;65498;50.916;4.698;2022-11-25T05:54:29;21.20;51.40
76607;DHT22;65498;50.916;4.698;2022-11-25T05:56:57;21.10;51.50
76607;DHT22;65498;50.916;4.698;2022-11-25T05:59:24;21.10;51.50
76607;DHT22;65498;50.916;4.698;2022-11-25T06:01:53;21.10;51.50
76607;DHT22;65498;50.916;4.698;2022-11-25T06:04:20;21.10;51.50
76607;DHT22;65498;50.916;4.698;2022-11-25T06:06:48;21.00;51.70
76607;DHT22;65498;50.916;4.698;2022-11-25T06:09:16;21.10;51.60
76607;DHT22;65498;50.916;4.698;2022-11-25T06:11:44;21.10;51.50
76607;DHT22;65498;50.916;4.698;2022-11-25T06:14:11;21.00;51.60
76607;DHT22;65498;50.916;4.698;2022-11-25T06:16:40;21.00;51.70
76607;DHT22;65498;50.916;4.698;2022-11-25T06:19:07;21.00;51.70
76607;DHT22;65498;50.916;4.698;2022-11-25T06:21:36;21.00;51.60
76607;DHT22;65498;50.916;4.698;2022-11-25T06:24:04;21.00;51.50
76607;DHT22;65498;50.916;4.698;2022-11-25T06:26:31;21.00;51.60
76607;DHT22;65498;50.916;4.698;2022-11-25T06:28:59;21.00;51.70
76607;DHT22;65498;50.916;4.698;2022-11-25T06:31:27;20.90;51.60
76607;DHT22;65498;50.916;4.698;2022-11-25T06:33:55;20.90;51.70
76607;DHT22;65498;50.916;4.698;2022-11-25T06:36:22;20.90;51.80
76607;DHT22;65498;50.916;4.698;2022-11-25T06:38:52;21.00;51.70
76607;DHT22;65498;50.916;4.698;2022-11-25T06:41:21;21.00;51.60
76607;DHT22;65498;50.916;4.698;2022-11-25T06:43:49;21.00;51.70
76607;DHT22;65498;50.916;4.698;2022-11-25T06:46:18;20.90;51.70
76607;DHT22;65498;50.916;4.698;2022-11-25T06:48:46;20.90;51.80
76607;DHT22;65498;50.916;4.698;2022-11-25T06:51:14;20.90;51.80
76607;DHT22;65498;50.916;4.698;2022-11-25T06:53:42;20.90;51.80
76607;DHT22;65498;50.916;4.698;2022-11-25T06:56:18;20.90;51.90
76607;DHT22;65498;50.916;4.698;2022-11-25T06:58:46;20.90;51.70
76607;DHT22;65498;50.916;4.698;2022-11-25T07:01:17;20.90;51.80
76607;DHT22;65498;50.916;4.698;2022-11-25T07:03:49;21.00;51.80
76607;DHT22;65498;50.916;4.698;2022-11-25T07:06:16;20.90;52.00
76607;DHT22;65498;50.916;4.698;2022-11-25T07:08:45;20.90;51.90
76607;DHT22;65498;50.916;4.698;2022-11-25T07:11:19;20.90;52.00
76607;DHT22;65498;50.916;4.698;2022-11-25T07:13:50;20.80;52.20
76607;DHT22;65498;50.916;4.698;2022-11-25T07:16:17;20.90;52.10
76607;DHT22;65498;50.916;4.698;2022-11-25T07:18:44;20.90;51.80
76607;DHT22;65498;50.916;4.698;2022-11-25T07:21:15;20.90;51.80
76607;DHT22;65498;50.916;4.698;2022-11-25T07:23:44;20.90;52.10
76607;DHT22;65498;50.916;4.698;2022-11-25T07:26:14;20.90;52.00
76607;DHT22;65498;50.916;4.698;2022-11-25T07:28:43;20.90;51.90
76607;DHT22;65498;50.916;4.698;2022-11-25T07:31:19;20.80;52.10
76607;DHT22;65498;50.916;4.698;2022-11-25T07:33:49;20.90;52.00
76607;DHT22;65498;50.916;4.698;2022-11-25T07:36:16;20.90;52.00
76607;DHT22;65498;50.916;4.698;2022-11-25T07:38:44;20.90;52.00
76607;DHT22;65498;50.916;4.698;2022-11-25T07:41:14;20.90;52.00
76607;DHT22;65498;50.916;4.698;2022-11-25T07:43:51;20.90;52.70
76607;DHT22;65498;50.916;4.698;2022-11-25T07:46:29;20.90;51.80
76607;DHT22;65498;50.916;4.698;2022-11-25T07:48:59;20.90;52.00
76607;DHT22;65498;50.916;4.698;2022-11-25T07:51:29;20.90;52.00
76607;DHT22;65498;50.916;4.698;2022-11-25T07:53:58;20.90;52.70
76607;DHT22;65498;50.916;4.698;2022-11-25T07:56:27;20.80;52.00
76607;DHT22;65498;50.916;4.698;2022-11-25T07:58:56;20.80;52.00
76607;DHT22;65498;50.916;4.698;2022-11-25T08:01:24;20.90;51.90
76607;DHT22;65498;50.916;4.698;2022-11-25T08:03:52;20.80;52.30
76607;DHT22;65498;50.916;4.698;2022-11-25T08:06:22;20.70;52.50
76607;DHT22;65498;50.916;4.698;2022-11-25T08:08:51;20.60;52.80
76607;DHT22;65498;50.916;4.698;2022-11-25T08:11:21;20.60;52.80
76607;DHT22;65498;50.916;4.698;2022-11-25T08:13:49;20.50;52.90
76607;DHT22;65498;50.916;4.698;2022-11-25T08:16:19;20.60;53.00
76607;DHT22;65498;50.916;4.698;2022-11-25T08:18:46;20.60;53.20
76607;DHT22;65498;50.916;4.698;2022-11-25T08:21:15;20.60;53.00
76607;DHT22;65498;50.916;4.698;2022-11-25T08:23:43;20.60;53.10
76607;DHT22;65498;50.916;4.698;2022-11-25T08:26:16;20.60;53.10
76607;DHT22;65498;50.916;4.698;2022-11-25T08:28:44;20.60;53.10
76607;DHT22;65498;50.916;4.698;2022-11-25T08:31:15;20.50;53.10
76607;DHT22;65498;50.916;4.698;2022-11-25T08:33:44;20.60;53.10
76607;DHT22;65498;50.916;4.698;2022-11-25T08:36:11;20.60;52.80
76607;DHT22;65498;50.916;4.698;2022-11-25T08:38:40;20.70;52.70
76607;DHT22;65498;50.916;4.698;2022-11-25T08:41:13;20.60;52.90
76607;DHT22;65498;50.916;4.698;2022-11-25T08:43:42;20.60;52.90
76607;DHT22;65498;50.916;4.698;2022-11-25T08:46:13;20.60;53.00
76607;DHT22;65498;50.916;4.698;2022-11-25T08:48:41;20.60;53.00
76607;DHT22;65498;50.916;4.698;2022-11-25T08:51:25;20.50;53.00
76607;DHT22;65498;50.916;4.698;2022-11-25T08:53:49;20.50;53.00
76607;DHT22;65498;50.916;4.698;2022-11-25T08:56:18;20.50;53.00
76607;DHT22;65498;50.916;4.698;2022-11-25T08:58:47;20.50;53.00
76607;DHT22;65498;50.916;4.698;2022-11-25T09:01:16;20.50;52.90
76607;DHT22;65498;50.916;4.698;2022-11-25T09:03:47;20.50;52.90
76607;DHT22;65498;50.916;4.698;2022-11-25T09:06:17;20.50;52.90
76607;DHT22;65498;50.916;4.698;2022-11-25T09:08:46;20.50;52.90
76607;DHT22;65498;50.916;4.698;2022-11-25T09:11:14;20.50;52.90
76607;DHT22;65498;50.916;4.698;2022-11-25T09:13:41;20.50;52.90
76607;DHT22;65498;50.916;4.698;2022-11-25T09:16:09;20.50;52.40
76607;DHT22;65498;50.916;4.698;2022-11-25T09:18:37;20.50;52.90
76607;DHT22;65498;50.916;4.698;2022-11-25T09:21:10;20.50;52.80
76607;DHT22;65498;50.916;4.698;2022-11-25T09:23:39;20.50;52.80
76607;DHT22;65498;50.916;4.698;2022-11-25T09:26:09;20.60;52.60
76607;DHT22;65498;50.916;4.698;2022-11-25T09:28:36;20.70;52.40
76607;DHT22;65498;50.916;4.698;2022-11-25T09:31:08;20.70;52.40
76607;DHT22;65498;50.916;4.698;2022-11-25T09:33:36;20.70;52.50
76607;DHT22;65498;50.916;4.698;2022-11-25T09:36:04;20.70;52.40
76607;DHT22;65498;50.916;4.698;2022-11-25T09:38:32;20.70;52.60
76607;DHT22;65498;50.916;4.698;2022-11-25T09:44:01;20.60;52.90
76607;DHT22;65498;50.916;4.698;2022-11-25T09:49:47;20.60;53.40
76607;DHT22;65498;50.916;4.698;2022-11-25T09:52:26;20.70;52.80
76607;DHT22;65498;50.916;4.698;2022-11-25T09:55:03;20.60;52.90
76607;DHT22;65498;50.916;4.698;2022-11-25T10:00:19;20.60;53.10
76607;DHT22;65498;50.916;4.698;2022-11-25T10:05:41;20.60;52.90
76607;DHT22;65498;50.916;4.698;2022-11-25T10:08:23;20.60;53.00
76607;DHT22;65498;50.916;4.698;2022-11-25T10:11:02;20.60;52.90
76607;DHT22;65498;50.916;4.698;2022-11-25T10:13:27;20.60;53.00
76607;DHT22;65498;50.916;4.698;2022-11-25T10:15:54;20.60;53.00
76607;DHT22;65498;50.916;4.698;2022-11-25T10:18:38;20.60;53.00
76607;DHT22;65498;50.916;4.698;2022-11-25T10:20:53;20.70;53.20
76607;DHT22;65498;50.916;4.698;2022-11-25T10:23:32;20.70;53.10
76607;DHT22;65498;50.916;4.698;2022-11-25T10:26:18;20.70;53.00
76607;DHT22;65498;50.916;4.698;2022-11-25T10:28:53;20.80;52.90
76607;DHT22;65498;50.916;4.698;2022-11-25T10:31:24;20.80;52.70
76607;DHT22;65498;50.916;4.698;2022-11-25T10:33:56;20.80;52.70
76607;DHT22;65498;50.916;4.698;2022-11-25T10:36:33;20.90;52.60
76607;DHT22;65498;50.916;4.698;2022-11-25T10:39:08;20.90;52.50
76607;DHT22;65498;50.916;4.698;2022-11-25T10:41:59;20.90;52.50
76607;DHT22;65498;50.916;4.698;2022-11-25T10:44:31;21.00;51.60
76607;DHT22;65498;50.916;4.698;2022-11-25T10:47:02;21.20;51.00
76607;DHT22;65498;50.916;4.698;2022-11-25T10:52:19;21.50;50.00
76607;DHT22;65498;50.916;4.698;2022-11-25T10:55:06;21.50;49.80
76607;DHT22;65498;50.916;4.698;2022-11-25T10:57:27;21.60;49.60
76607;DHT22;65498;50.916;4.698;2022-11-25T10:59:57;21.70;49.40
76607;DHT22;65498;50.916;4.698;2022-11-25T11:02:28;21.60;49.30
76607;DHT22;65498;50.916;4.698;2022-11-25T11:07:41;21.70;49.10
76607;DHT22;65498;50.916;4.698;2022-11-25T11:10:21;21.70;49.00
76607;DHT22;65498;50.916;4.698;2022-11-25T11:12:59;21.80;48.80
76607;DHT22;65498;50.916;4.698;2022-11-25T11:15:43;21.80;48.70
76607;DHT22;65498;50.916;4.698;2022-11-25T11:20:50;22.00;48.20
76607;DHT22;65498;50.916;4.698;2022-11-25T11:23:18;21.90;48.30
76607;DHT22;65498;50.916;4.698;2022-11-25T11:26:03;21.90;48.20
76607;DHT22;65498;50.916;4.698;2022-11-25T11:28:38;21.90;48.10
76607;DHT22;65498;50.916;4.698;2022-11-25T11:31:17;22.00;48.00
76607;DHT22;65498;50.916;4.698;2022-11-25T11:34:02;22.00;47.90
76607;DHT22;65498;50.916;4.698;2022-11-25T11:42:14;21.90;48.00
76607;DHT22;65498;50.916;4.698;2022-11-25T11:53:10;21.50;49.50
76607;DHT22;65498;50.916;4.698;2022-11-25T12:01:29;21.50;49.60
76607;DHT22;65498;50.916;4.698;2022-11-25T12:06:35;21.50;49.50
76607;DHT22;65498;50.916;4.698;2022-11-25T12:09:10;21.50;49.50
76607;DHT22;65498;50.916;4.698;2022-11-25T12:11:47;21.50;49.50
76607;DHT22;65498;50.916;4.698;2022-11-25T12:16:56;21.40;49.80
76607;DHT22;65498;50.916;4.698;2022-11-25T12:27:33;21.30;50.20
76607;DHT22;65498;50.916;4.698;2022-11-25T12:32:43;21.40;50.00
76607;DHT22;65498;50.916;4.698;2022-11-25T12:35:15;21.40;50.00
76607;DHT22;65498;50.916;4.698;2022-11-25T12:37:44;21.40;50.00
76607;DHT22;65498;50.916;4.698;2022-11-25T12:40:15;21.40;50.10
76607;DHT22;65498;50.916;4.698;2022-11-25T12:42:44;21.40;49.90
76607;DHT22;65498;50.916;4.698;2022-11-25T12:45:21;21.40;49.90
76607;DHT22;65498;50.916;4.698;2022-11-25T12:47:51;21.50;49.90
76607;DHT22;65498;50.916;4.698;2022-11-25T12:50:26;21.40;49.90
76607;DHT22;65498;50.916;4.698;2022-11-25T12:53:00;21.40;50.00
76607;DHT22;65498;50.916;4.698;2022-11-25T12:55:27;21.40;50.20
76607;DHT22;65498;50.916;4.698;2022-11-25T12:58:27;21.40;50.00
76607;DHT22;65498;50.916;4.698;2022-11-25T13:01:03;21.40;50.10
76607;DHT22;65498;50.916;4.698;2022-11-25T13:04:08;21.30;50.30
76607;DHT22;65498;50.916;4.698;2022-11-25T13:12:36;21.30;50.50
76607;DHT22;65498;50.916;4.698;2022-11-25T13:17:53;21.40;50.50
76607;DHT22;65498;50.916;4.698;2022-11-25T13:20:31;21.30;51.10
76607;DHT22;65498;50.916;4.698;2022-11-25T13:25:42;21.30;50.90
76607;DHT22;65498;50.916;4.698;2022-11-25T13:28:35;21.30;51.00
76607;DHT22;65498;50.916;4.698;2022-11-25T13:31:18;21.30;51.00
76607;DHT22;65498;50.916;4.698;2022-11-25T13:36:42;21.40;51.50
76607;DHT22;65498;50.916;4.698;2022-11-25T13:41:24;21.50;51.70
76607;DHT22;65498;50.916;4.698;2022-11-25T13:46:37;21.30;52.60
76607;DHT22;65498;50.916;4.698;2022-11-25T13:49:19;21.30;51.90
76607;DHT22;65498;50.916;4.698;2022-11-25T13:51:36;21.20;51.50
76607;DHT22;65498;50.916;4.698;2022-11-25T13:54:05;21.00;51.80
76607;DHT22;65498;50.916;4.698;2022-11-25T13:56:35;20.90;51.90
76607;DHT22;65498;50.916;4.698;2022-11-25T14:04:20;20.80;51.30
76607;DHT22;65498;50.916;4.698;2022-11-25T14:07:05;20.90;51.10
76607;DHT22;65498;50.916;4.698;2022-11-25T14:12:39;20.80;51.70
76607;DHT22;65498;50.916;4.698;2022-11-25T14:15:35;20.80;51.40
76607;DHT22;65498;50.916;4.698;2022-11-25T14:18:36;20.80;51.60
76607;DHT22;65498;50.916;4.698;2022-11-25T14:21:25;20.70;51.70
76607;DHT22;65498;50.916;4.698;2022-11-25T14:24:01;20.80;51.20
76607;DHT22;65498;50.916;4.698;2022-11-25T14:26:30;20.80;51.30
76607;DHT22;65498;50.916;4.698;2022-11-25T14:29:17;20.80;51.40
76607;DHT22;65498;50.916;4.698;2022-11-25T14:31:52;20.70;51.40
76607;DHT22;65498;50.916;4.698;2022-11-25T14:34:26;20.80;51.30
76607;DHT22;65498;50.916;4.698;2022-11-25T14:36:55;20.70;51.30
76607;DHT22;65498;50.916;4.698;2022-11-25T14:39:35;20.80;51.70
76607;DHT22;65498;50.916;4.698;2022-11-25T14:42:05;20.80;51.00
76607;DHT22;65498;50.916;4.698;2022-11-25T14:44:45;20.70;51.40
76607;DHT22;65498;50.916;4.698;2022-11-25T14:47:05;20.70;51.30
76607;DHT22;65498;50.916;4.698;2022-11-25T14:49:43;20.70;51.10
76607;DHT22;65498;50.916;4.698;2022-11-25T14:52:20;20.70;51.30
76607;DHT22;65498;50.916;4.698;2022-11-25T14:54:47;20.70;51.30
76607;DHT22;65498;50.916;4.698;2022-11-25T14:57:24;20.80;51.20
76607;DHT22;65498;50.916;4.698;2022-11-25T14:59:55;20.60;51.40
76607;DHT22;65498;50.916;4.698;2022-11-25T15:02:29;20.70;51.20
76607;DHT22;65498;50.916;4.698;2022-11-25T15:05:17;20.70;51.00
76607;DHT22;65498;50.916;4.698;2022-11-25T15:08:03;20.70;50.80
76607;DHT22;65498;50.916;4.698;2022-11-25T15:10:52;20.70;51.00
76607;DHT22;65498;50.916;4.698;2022-11-25T15:13:35;20.70;51.00
76607;DHT22;65498;50.916;4.698;2022-11-25T15:18:39;20.90;50.40
76607;DHT22;65498;50.916;4.698;2022-11-25T15:21:09;20.90;50.40
76607;DHT22;65498;50.916;4.698;2022-11-25T15:23:37;20.80;50.50
76607;DHT22;65498;50.916;4.698;2022-11-25T15:26:22;20.90;50.30
76607;DHT22;65498;50.916;4.698;2022-11-25T15:29:01;20.90;50.30
76607;DHT22;65498;50.916;4.698;2022-11-25T15:31:31;20.90;50.20
76607;DHT22;65498;50.916;4.698;2022-11-25T15:34:02;20.90;50.00
76607;DHT22;65498;50.916;4.698;2022-11-25T15:36:30;20.90;50.20
76607;DHT22;65498;50.916;4.698;2022-11-25T15:42:01;20.80;50.30
76607;DHT22;65498;50.916;4.698;2022-11-25T15:44:27;20.80;50.40
76607;DHT22;65498;50.916;4.698;2022-11-25T15:46:58;20.80;50.50
76607;DHT22;65498;50.916;4.698;2022-11-25T15:49:27;20.70;50.40
76607;DHT22;65498;50.916;4.698;2022-11-25T15:51:58;20.70;50.40
76607;DHT22;65498;50.916;4.698;2022-11-25T15:54:30;20.70;50.50
76607;DHT22;65498;50.916;4.698;2022-11-25T15:57:13;20.70;50.50
76607;DHT22;65498;50.916;4.698;2022-11-25T15:59:46;20.80;50.20
76607;DHT22;65498;50.916;4.698;2022-11-25T16:05:17;20.80;50.00
76607;DHT22;65498;50.916;4.698;2022-11-25T16:10:23;20.70;50.30
76607;DHT22;65498;50.916;4.698;2022-11-25T16:18:42;20.80;50.10
76607;DHT22;65498;50.916;4.698;2022-11-25T16:21:19;20.80;49.60
76607;DHT22;65498;50.916;4.698;2022-11-25T16:23:49;20.80;50.10
76607;DHT22;65498;50.916;4.698;2022-11-25T16:26:30;20.80;50.50
76607;DHT22;65498;50.916;4.698;2022-11-25T16:28:56;20.80;50.50
76607;DHT22;65498;50.916;4.698;2022-11-25T16:31:24;20.80;50.50
76607;DHT22;65498;50.916;4.698;2022-11-25T16:34:00;20.90;50.50
76607;DHT22;65498;50.916;4.698;2022-11-25T16:36:28;21.00;50.30
76607;DHT22;65498;50.916;4.698;2022-11-25T16:38:56;21.00;50.30
76607;DHT22;65498;50.916;4.698;2022-11-25T16:41:24;21.00;50.40
76607;DHT22;65498;50.916;4.698;2022-11-25T16:43:53;21.00;50.60
76607;DHT22;65498;50.916;4.698;2022-11-25T16:46:20;21.00;50.60
76607;DHT22;65498;50.916;4.698;2022-11-25T16:48:48;21.00;50.80
76607;DHT22;65498;50.916;4.698;2022-11-25T16:51:20;21.00;50.70
76607;DHT22;65498;50.916;4.698;2022-11-25T16:53:48;21.00;50.70
76607;DHT22;65498;50.916;4.698;2022-11-25T16:56:28;21.00;50.70
76607;DHT22;65498;50.916;4.698;2022-11-25T16:58:57;21.00;50.60
76607;DHT22;65498;50.916;4.698;2022-11-25T17:01:27;21.00;50.80
76607;DHT22;65498;50.916;4.698;2022-11-25T17:03:55;21.00;50.80
76607;DHT22;65498;50.916;4.698;2022-11-25T17:06:25;21.00;50.80
76607;DHT22;65498;50.916;4.698;2022-11-25T17:08:53;21.00;50.70
76607;DHT22;65498;50.916;4.698;2022-11-25T17:11:29;21.00;50.90
76607;DHT22;65498;50.916;4.698;2022-11-25T17:13:59;21.00;51.00
76607;DHT22;65498;50.916;4.698;2022-11-25T17:16:28;21.00;51.00
76607;DHT22;65498;50.916;4.698;2022-11-25T17:18:58;21.00;50.90
76607;DHT22;65498;50.916;4.698;2022-11-25T17:21:27;21.10;50.90
76607;DHT22;65498;50.916;4.698;2022-11-25T17:23:57;21.10;50.90
76607;DHT22;65498;50.916;4.698;2022-11-25T17:26:34;21.10;51.10
76607;DHT22;65498;50.916;4.698;2022-11-25T17:28:58;21.10;51.10
76607;DHT22;65498;50.916;4.698;2022-11-25T17:31:29;21.10;51.10
76607;DHT22;65498;50.916;4.698;2022-11-25T17:33:58;21.10;51.00
76607;DHT22;65498;50.916;4.698;2022-11-25T17:36:26;21.10;51.00
76607;DHT22;65498;50.916;4.698;2022-11-25T17:38:53;21.20;50.90